createdAt,value
2019-02-03T05:31:39.702Z,0.40
2019-02-03T05:34:09.538Z,0.40
2019-02-03T05:36:38.617Z,0.40
2019-02-03T05:39:08.157Z,0.40
2019-02-03T05:41:37.143Z,0.40
2019-02-03T05:44:06.294Z,0.40
2019-02-03T05:46:35.517Z,0.40
2019-02-03T05:49:05.584Z,0.40
2019-02-03T05:51:34.519Z,0.40
2019-02-03T05:54:03.625Z,0.40
2019-02-03T05:56:32.748Z,0.40
2019-02-03T05:59:01.747Z,0.40
2019-02-03T06:01:30.762Z,0.40
2019-02-03T06:03:59.761Z,0.40
2019-02-03T06:06:28.868Z,0.40
2019-02-03T06:08:57.956Z,0.40
2019-02-03T06:11:26.974Z,0.40
2019-02-03T06:13:55.980Z,0.40
2019-02-03T06:16:25.381Z,0.40
2019-02-03T06:18:54.474Z,0.40
2019-02-03T06:21:23.631Z,0.40
2019-02-03T06:23:52.671Z,0.40
2019-02-03T06:26:21.753Z,0.40
2019-02-03T06:28:50.759Z,0.40
2019-02-03T06:31:20.041Z,0.40
2019-02-03T06:33:53.137Z,0.40
2019-02-03T06:36:22.751Z,0.40
2019-02-03T06:38:52.867Z,0.40
2019-02-03T06:41:21.999Z,0.40
2019-02-03T06:43:51.073Z,0.40
2019-02-03T06:46:35.816Z,0.30
2019-02-03T06:49:08.995Z,0.40
2019-02-03T06:51:38.080Z,0.40
2019-02-03T06:54:07.266Z,0.40
2019-02-03T06:56:36.339Z,0.40
2019-02-03T06:59:05.575Z,0.40
2019-02-03T07:01:34.775Z,0.40
2019-02-03T07:04:03.830Z,0.40
2019-02-03T07:06:33.124Z,0.40
2019-02-03T07:09:02.231Z,0.40
2019-02-03T07:11:31.431Z,0.40
2019-02-03T07:14:00.635Z,0.30
2019-02-03T07:16:40.188Z,0.40
2019-02-03T07:19:00.484Z,0.30
2019-02-03T07:21:29.906Z,0.40
2019-02-03T07:23:58.956Z,0.40
2019-02-03T07:26:29.260Z,0.40
2019-02-03T07:28:58.832Z,0.40
2019-02-03T07:31:28.513Z,0.40
2019-02-03T07:33:57.990Z,0.40
2019-02-03T07:36:27.835Z,0.40
2019-02-03T07:38:57.964Z,0.40
2019-02-03T07:41:27.346Z,0.40
2019-02-03T07:43:58.175Z,0.40
2019-02-03T07:46:27.665Z,0.40
2019-02-03T07:48:57.178Z,0.40
2019-02-03T07:51:26.334Z,0.40
2019-02-03T07:54:07.770Z,0.40
2019-02-03T07:56:27.935Z,0.50
2019-02-03T07:58:57.480Z,0.40
2019-02-03T08:01:28.366Z,0.40
2019-02-03T08:03:58.018Z,0.40
2019-02-03T08:06:27.654Z,0.50
2019-02-03T08:08:57.502Z,0.40
2019-02-03T08:11:27.058Z,0.50
2019-02-03T08:13:56.398Z,0.50
2019-02-03T08:16:25.571Z,0.40
2019-02-03T08:18:54.579Z,0.40
2019-02-03T08:21:23.741Z,0.50
2019-02-03T08:23:53.027Z,0.50
2019-02-03T08:26:22.411Z,0.50
2019-02-03T08:28:51.547Z,0.50
2019-02-03T08:31:20.660Z,0.50
2019-02-03T08:33:49.698Z,0.50
2019-02-03T08:36:18.750Z,0.50
2019-02-03T08:38:47.854Z,0.50
2019-02-03T08:41:16.921Z,0.60
2019-02-03T08:43:46.389Z,0.50
2019-02-03T08:46:15.499Z,0.50
2019-02-03T08:48:44.642Z,0.60
2019-02-03T08:51:13.891Z,0.50
2019-02-03T08:53:42.919Z,0.50
2019-02-03T08:56:12.047Z,0.60
2019-02-03T08:58:41.278Z,0.60
2019-02-03T09:01:10.304Z,0.60
2019-02-03T09:03:39.337Z,0.60
2019-02-03T09:06:08.559Z,0.60
2019-02-03T09:08:37.739Z,0.60
2019-02-03T09:11:06.791Z,0.60
2019-02-03T09:13:35.797Z,0.60
2019-02-03T09:16:05.103Z,0.60
2019-02-03T09:18:35.068Z,0.60
2019-02-03T09:21:04.496Z,0.60
2019-02-03T09:23:33.553Z,0.60
2019-02-03T09:26:02.949Z,0.60
2019-02-03T09:28:32.174Z,0.60
2019-02-03T09:31:01.254Z,0.70
2019-02-03T09:33:30.341Z,0.60
2019-02-03T09:35:59.686Z,0.60
2019-02-03T09:38:29.033Z,0.60
2019-02-03T09:41:00.322Z,0.60
2019-02-03T09:43:30.914Z,0.50
2019-02-03T09:46:00.301Z,0.60
2019-02-03T09:48:29.617Z,0.50
2019-02-03T09:50:59.120Z,0.60
2019-02-03T09:53:29.302Z,0.60
2019-02-03T09:56:00.619Z,0.60
2019-02-03T09:58:29.997Z,0.60
2019-02-03T10:00:59.467Z,0.60
2019-02-03T10:03:28.617Z,0.70
2019-02-03T10:05:57.753Z,0.70
2019-02-03T10:08:26.894Z,0.70
2019-02-03T10:10:56.431Z,0.70
2019-02-03T10:13:25.569Z,0.70
2019-02-03T10:15:54.629Z,0.70
2019-02-03T10:18:24.182Z,0.60
2019-02-03T10:20:53.350Z,0.70
2019-02-03T10:23:22.982Z,0.80
2019-02-03T10:25:52.136Z,0.70
2019-02-03T10:28:21.512Z,0.80
2019-02-03T10:30:50.676Z,0.70
2019-02-03T10:33:19.829Z,0.80
2019-02-03T10:35:49.263Z,0.80
2019-02-03T10:38:18.415Z,0.90
2019-02-03T10:40:49.158Z,0.90
2019-02-03T10:43:18.272Z,0.90
2019-02-03T10:45:47.450Z,0.90
2019-02-03T10:48:17.945Z,0.90
2019-02-03T10:50:47.056Z,0.90
2019-02-03T10:53:16.358Z,1.10
2019-02-03T10:55:46.222Z,1.20
2019-02-03T10:58:15.762Z,1.00
2019-02-03T11:00:45.113Z,1.10
2019-02-03T11:03:14.214Z,1.00
2019-02-03T11:05:45.707Z,1.10
2019-02-03T11:08:15.552Z,0.90
2019-02-03T11:10:45.570Z,0.90
2019-02-03T11:13:15.138Z,1.00
2019-02-03T11:15:44.320Z,1.00
2019-02-03T11:18:13.846Z,1.00
2019-02-03T11:20:43.016Z,0.90
2019-02-03T11:23:12.197Z,0.90
2019-02-03T11:25:41.377Z,0.90
2019-02-03T11:28:10.527Z,0.90
2019-02-03T11:30:39.678Z,0.90
2019-02-03T11:33:10.056Z,0.80
2019-02-03T11:35:39.405Z,0.80
2019-02-03T11:38:08.927Z,0.70
2019-02-03T11:40:40.932Z,0.80
2019-02-03T11:43:09.745Z,0.70
2019-02-03T11:45:41.173Z,0.70
2019-02-03T11:48:16.172Z,0.60
2019-02-03T11:50:45.636Z,0.60
2019-02-03T11:53:16.382Z,0.50
2019-02-03T11:55:45.574Z,0.50
2019-02-03T11:58:14.752Z,0.60
2019-02-03T12:00:43.847Z,0.60
2019-02-03T12:03:13.070Z,0.70
2019-02-03T12:05:42.231Z,0.70
2019-02-03T12:08:11.366Z,0.70
2019-02-03T12:10:40.470Z,0.80
2019-02-03T12:13:10.294Z,0.80
2019-02-03T12:15:39.459Z,0.90
2019-02-03T12:18:08.856Z,0.90
2019-02-03T12:20:38.015Z,0.90
2019-02-03T12:23:07.459Z,0.80
2019-02-03T12:25:38.709Z,1.00
2019-02-03T12:28:08.408Z,0.90
2019-02-03T12:30:37.814Z,0.90
2019-02-03T12:33:07.572Z,1.00
2019-02-03T12:35:36.970Z,1.00
2019-02-03T12:38:06.728Z,0.80
2019-02-03T12:40:36.610Z,0.80
2019-02-03T12:43:06.219Z,0.70
2019-02-03T12:45:35.668Z,0.60
2019-02-03T12:48:08.234Z,0.60
2019-02-03T12:50:40.800Z,0.60
2019-02-03T12:53:10.816Z,0.60
2019-02-03T12:55:44.815Z,0.70
2019-02-03T12:58:19.369Z,0.80
2019-02-03T13:00:49.613Z,0.80
2019-02-03T13:03:25.340Z,0.70
2019-02-03T13:05:56.056Z,0.80
2019-02-03T13:08:31.235Z,0.80
2019-02-03T13:11:02.720Z,0.90
2019-02-03T13:13:33.494Z,0.90
2019-02-03T13:16:20.628Z,0.90
2019-02-03T13:18:49.699Z,0.90
2019-02-03T13:21:33.225Z,0.80
2019-02-03T13:24:07.821Z,0.60
2019-02-03T13:26:40.283Z,0.60
2019-02-03T13:29:10.199Z,0.60
2019-02-03T13:31:51.533Z,0.60
2019-02-03T13:34:26.872Z,0.50
2019-02-03T13:37:01.101Z,0.50
2019-02-03T13:39:30.078Z,0.20
2019-02-03T13:41:59.328Z,0.70
2019-02-03T13:44:28.728Z,0.60
2019-02-03T13:46:57.867Z,0.50
2019-02-03T13:49:27.066Z,0.50
2019-02-03T13:51:56.229Z,0.60
2019-02-03T13:54:25.238Z,0.40
2019-02-03T13:56:54.299Z,0.40
2019-02-03T13:59:25.224Z,0.40
2019-02-03T14:01:54.531Z,0.20
2019-02-03T14:04:23.584Z,0.20
2019-02-03T14:06:52.634Z,0.20
2019-02-03T14:09:22.019Z,0.20
2019-02-03T14:11:51.367Z,0.10
2019-02-03T14:14:20.574Z,0.10
2019-02-03T14:16:49.666Z,0.10
2019-02-03T14:19:18.885Z,0.10
2019-02-03T14:21:47.950Z,0.00
2019-02-03T14:24:17.015Z,0.00
2019-02-03T14:26:46.185Z,-0.10
2019-02-03T14:29:15.306Z,-0.10
2019-02-03T14:31:44.404Z,-0.10
2019-02-03T14:34:13.479Z,-0.10
2019-02-03T14:36:42.763Z,-0.10
2019-02-03T14:39:12.095Z,-0.10
2019-02-03T14:41:41.363Z,-0.10
2019-02-03T14:44:10.495Z,0.00
2019-02-03T14:46:39.642Z,-0.10
2019-02-03T14:49:08.635Z,-0.10
2019-02-03T14:51:37.819Z,-0.10
2019-02-03T14:54:06.880Z,-0.10
2019-02-03T14:56:35.990Z,-0.10
2019-02-03T14:59:05.271Z,-0.10
2019-02-03T15:01:34.338Z,-0.20
2019-02-03T15:04:03.500Z,-0.10
2019-02-03T15:06:34.374Z,-0.10
2019-02-03T15:09:04.962Z,-0.10
2019-02-03T15:11:34.107Z,-0.20
2019-02-03T15:14:03.172Z,-0.30
2019-02-03T15:16:32.179Z,-0.30
2019-02-03T15:19:01.335Z,-0.30
2019-02-03T15:21:30.270Z,-0.30
2019-02-03T15:23:59.363Z,-0.30
2019-02-03T15:26:28.451Z,-0.30
2019-02-03T15:28:57.543Z,-0.30
2019-02-03T15:31:27.034Z,-0.30
2019-02-03T15:33:56.126Z,-0.30
2019-02-03T15:36:25.265Z,-0.40
2019-02-03T15:38:54.359Z,-0.40
2019-02-03T15:41:23.426Z,-0.40
2019-02-03T15:43:52.609Z,-0.40
2019-02-03T15:46:21.610Z,-0.40
2019-02-03T15:48:50.678Z,-0.40
2019-02-03T15:51:19.794Z,-0.40
2019-02-03T15:53:48.702Z,-0.40
2019-02-03T15:56:17.708Z,-0.50
2019-02-03T15:58:46.808Z,-0.60
2019-02-03T16:01:16.182Z,-0.60
2019-02-03T16:03:45.267Z,-0.70
2019-02-03T16:06:14.415Z,-0.70
2019-02-03T16:08:43.477Z,-0.70
2019-02-03T16:11:12.543Z,-0.70
2019-02-03T16:13:41.721Z,-0.80
2019-02-03T16:16:10.873Z,-0.80
2019-02-03T16:18:40.004Z,-0.80
2019-02-03T16:21:09.211Z,-0.80
2019-02-03T16:23:38.301Z,-0.80
2019-02-03T16:26:08.276Z,-0.90
2019-02-03T16:28:37.367Z,-0.80
2019-02-03T16:31:06.434Z,-0.80
2019-02-03T16:33:35.491Z,-0.90
2019-02-03T16:36:04.684Z,-0.90
2019-02-03T16:38:34.072Z,-0.90
2019-02-03T16:41:03.426Z,-0.80
2019-02-03T16:43:32.640Z,-0.80
2019-02-03T16:46:01.772Z,-0.90
2019-02-03T16:48:30.864Z,-0.90
2019-02-03T16:51:00.036Z,-0.90
2019-02-03T16:53:29.516Z,-0.90
2019-02-03T16:55:58.517Z,-0.80
2019-02-03T16:58:27.903Z,-0.80
2019-02-03T17:00:57.042Z,-0.90
2019-02-03T17:03:26.099Z,-0.90
2019-02-03T17:05:55.193Z,-0.80
2019-02-03T17:08:24.305Z,-0.80
2019-02-03T17:10:53.430Z,-0.90
2019-02-03T17:13:22.725Z,-0.90
2019-02-03T17:15:57.338Z,-1.00
2019-02-03T17:18:26.430Z,-0.90
2019-02-03T17:21:02.078Z,-0.80
2019-02-03T17:23:27.100Z,-1.00
2019-02-03T17:26:02.113Z,-1.00
2019-02-03T17:28:31.548Z,-1.00
2019-02-03T17:31:00.937Z,-1.00
2019-02-03T17:33:30.394Z,-1.10
2019-02-03T17:36:00.352Z,-1.10
2019-02-03T17:38:30.481Z,-1.00
2019-02-03T17:41:00.114Z,-1.00
2019-02-03T17:43:29.710Z,-1.00
2019-02-03T17:45:58.844Z,-1.00
2019-02-03T17:48:27.994Z,-1.00
2019-02-03T17:51:01.056Z,-0.90
2019-02-03T17:53:30.406Z,-1.00
2019-02-03T17:55:59.436Z,-0.90
2019-02-03T17:58:28.507Z,-0.90
2019-02-03T18:01:00.891Z,-0.90
2019-02-03T18:03:30.018Z,-0.90
2019-02-03T18:05:59.408Z,-0.90
2019-02-03T18:08:28.659Z,-0.90
2019-02-03T18:10:57.827Z,-1.00
2019-02-03T18:13:26.909Z,-1.00
2019-02-03T18:15:56.050Z,-1.00
2019-02-03T18:18:25.338Z,-1.00
2019-02-03T18:20:54.546Z,-1.00
2019-02-03T18:23:25.414Z,-1.00
2019-02-03T18:25:54.547Z,-1.00
2019-02-03T18:28:23.630Z,-1.00
2019-02-03T18:30:52.782Z,-1.00
2019-02-03T18:33:21.890Z,-1.00
2019-02-03T18:35:51.019Z,-1.00
2019-02-03T18:38:20.927Z,-1.00
2019-02-03T18:40:50.182Z,-1.00
2019-02-03T18:43:19.388Z,-1.00
2019-02-03T18:45:48.575Z,-1.00
2019-02-03T18:48:18.235Z,-1.00
2019-02-03T18:50:47.450Z,-1.00
2019-02-03T18:53:16.668Z,-1.00
2019-02-03T18:55:45.887Z,-0.90
2019-02-03T18:58:14.984Z,-1.00
2019-02-03T19:00:44.718Z,-1.00
2019-02-03T19:03:14.168Z,-1.00
2019-02-03T19:05:43.346Z,-0.90
2019-02-03T19:08:13.112Z,-0.90
2019-02-03T19:10:42.391Z,-0.90
2019-02-03T19:13:11.595Z,-1.00
2019-02-03T19:15:42.113Z,-1.00
2019-02-03T19:18:11.444Z,-1.00
2019-02-03T19:20:41.342Z,-0.90
2019-02-03T19:23:11.779Z,-0.90
2019-02-03T19:25:41.485Z,-1.00
2019-02-03T19:28:10.851Z,-1.00
2019-02-03T19:30:40.044Z,-1.00
2019-02-03T19:33:09.226Z,-1.00
2019-02-03T19:35:38.482Z,-1.00
2019-02-03T19:38:07.955Z,-1.00
2019-02-03T19:40:37.163Z,-1.00
2019-02-03T19:43:07.217Z,-1.00
2019-02-03T19:45:36.512Z,-1.00
2019-02-03T19:48:06.747Z,-1.00
2019-02-03T19:50:37.099Z,-1.00
2019-02-03T19:53:06.873Z,-1.00
2019-02-03T19:55:38.006Z,-1.00
2019-02-03T19:58:07.435Z,-1.00
2019-02-03T20:00:38.820Z,-1.00
2019-02-03T20:03:08.363Z,-1.00
2019-02-03T20:05:42.444Z,-1.00
2019-02-03T20:08:10.238Z,-1.00
2019-02-03T20:10:39.635Z,-1.00
2019-02-03T20:13:09.064Z,-1.00
2019-02-03T20:15:38.448Z,-1.00
2019-02-03T20:18:07.742Z,-1.00
2019-02-03T20:20:37.385Z,-0.90
2019-02-03T20:23:06.947Z,-1.00
2019-02-03T20:25:36.407Z,-0.90
2019-02-03T20:28:06.110Z,-1.00
2019-02-03T20:30:38.932Z,-0.90
2019-02-03T20:33:06.511Z,-0.90
2019-02-03T20:35:35.747Z,-0.90
2019-02-03T20:38:05.589Z,-0.90
2019-02-03T20:40:37.315Z,-0.90
2019-02-03T20:43:06.542Z,-1.00
2019-02-03T20:45:36.213Z,-0.90
2019-02-03T20:48:05.930Z,-0.90
2019-02-03T20:50:35.058Z,-0.90
2019-02-03T20:53:04.591Z,-0.90
2019-02-03T20:55:33.918Z,-0.90
2019-02-03T20:58:03.120Z,-0.90
2019-02-03T21:00:33.346Z,-0.90
2019-02-03T21:03:02.546Z,-0.90
2019-02-03T21:05:32.101Z,-1.00
2019-02-03T21:08:01.167Z,-0.90
2019-02-03T21:10:30.746Z,-0.90
2019-02-03T21:13:10.091Z,-0.90
2019-02-03T21:15:33.926Z,-0.80
2019-02-03T21:18:01.935Z,-0.90
2019-02-03T21:20:32.331Z,-0.80
2019-02-03T21:23:01.540Z,-0.90
2019-02-03T21:25:31.022Z,-0.90
2019-02-03T21:28:00.227Z,-0.90
2019-02-03T21:30:34.637Z,-0.90
2019-02-03T21:33:04.250Z,-0.90
2019-02-03T21:35:33.499Z,-0.90
2019-02-03T21:38:02.663Z,-0.90
2019-02-03T21:40:32.104Z,-0.90
2019-02-03T21:43:01.441Z,-0.90
2019-02-03T21:45:30.612Z,-0.90
2019-02-03T21:47:59.882Z,-0.80
2019-02-03T21:50:29.450Z,-0.90
2019-02-03T21:52:58.589Z,-0.90
2019-02-03T21:55:27.978Z,-0.80
2019-02-03T22:00:29.763Z,-0.90
2019-02-03T22:02:58.867Z,-0.90
2019-02-03T22:05:28.368Z,-0.90
2019-02-03T22:07:57.918Z,-0.90
2019-02-03T22:10:28.921Z,-0.90
2019-02-03T22:12:58.090Z,-0.90
2019-02-03T22:15:27.279Z,-1.00
2019-02-03T22:17:56.588Z,-0.90
2019-02-03T22:20:25.748Z,-0.90
2019-02-03T22:22:54.943Z,-1.00
2019-02-03T22:25:24.043Z,-1.00
2019-02-03T22:27:53.526Z,-0.50
2019-02-03T22:30:24.945Z,-1.00
2019-02-03T22:32:54.111Z,-1.00
2019-02-03T22:35:23.219Z,-1.00
2019-02-03T22:37:52.415Z,-1.00
2019-02-03T22:40:21.610Z,-1.00
2019-02-03T22:42:50.768Z,-1.00
2019-02-03T22:45:20.303Z,-1.00
2019-02-03T22:47:49.369Z,-1.00
2019-02-03T22:50:23.574Z,-1.00
2019-02-03T22:52:52.700Z,-1.00
2019-02-03T22:55:21.867Z,-1.00
2019-02-03T22:57:51.236Z,-1.00
2019-02-03T23:01:07.154Z,-1.00
2019-02-03T23:03:39.961Z,-1.00
2019-02-03T23:06:09.048Z,-1.00
2019-02-03T23:08:38.090Z,-1.00
2019-02-03T23:11:07.143Z,-1.00
2019-02-03T23:13:36.335Z,-1.00
2019-02-03T23:16:06.137Z,-1.00
2019-02-03T23:18:35.230Z,-1.00
2019-02-03T23:21:04.406Z,-1.00
2019-02-03T23:23:33.572Z,-1.00
2019-02-03T23:26:02.814Z,-1.00
2019-02-03T23:28:31.889Z,-1.00
